createdAt,value
2023-04-28T00:00:37.874Z,12.70
2023-04-28T00:05:39.361Z,12.90
2023-04-28T00:10:41.056Z,17.00
2023-04-28T00:15:42.565Z,17.90
2023-04-28T00:20:44.493Z,16.00
2023-04-28T00:25:52.086Z,15.10
2023-04-28T00:30:53.617Z,18.30
2023-04-28T00:36:01.704Z,15.70
2023-04-28T00:41:04.035Z,15.10
2023-04-28T00:46:05.625Z,15.30
2023-04-28T00:51:08.075Z,15.20
2023-04-28T00:56:10.505Z,18.80
2023-04-28T01:01:12.307Z,20.00
2023-04-28T01:06:14.729Z,21.50
2023-04-28T01:11:16.588Z,27.60
2023-04-28T01:16:18.567Z,23.60
2023-04-28T01:21:30.441Z,18.80
2023-04-28T01:26:31.969Z,21.30
2023-04-28T01:31:33.544Z,18.40
2023-04-28T01:36:37.257Z,18.20
2023-04-28T01:41:39.164Z,19.10
2023-04-28T01:46:41.050Z,18.80
2023-04-28T01:51:43.026Z,19.00
2023-04-28T01:56:45.005Z,18.00
2023-04-28T02:01:46.766Z,19.30
2023-04-28T02:06:48.780Z,19.00
2023-04-28T02:11:50.400Z,19.50
2023-04-28T02:16:51.939Z,19.00
2023-04-28T02:21:53.421Z,21.00
2023-04-28T02:26:54.902Z,19.70
2023-04-28T02:31:56.460Z,16.10
2023-04-28T02:36:58.010Z,16.00
2023-04-28T02:41:59.528Z,14.10
2023-04-28T02:47:01.912Z,15.80
2023-04-28T02:52:03.773Z,8.20
2023-04-28T02:57:05.261Z,11.70
2023-04-28T03:02:06.768Z,12.30
2023-04-28T03:07:08.329Z,12.60
2023-04-28T03:12:09.849Z,11.90
2023-04-28T03:17:11.590Z,12.10
2023-04-28T03:22:13.114Z,17.30
2023-04-28T03:27:14.634Z,16.70
2023-04-28T03:32:16.534Z,17.80
2023-04-28T03:37:18.348Z,18.60
2023-04-28T03:42:19.846Z,22.40
2023-04-28T03:47:21.456Z,26.00
2023-04-28T03:52:23.008Z,25.00
2023-04-28T03:57:24.581Z,26.30
2023-04-28T04:02:26.314Z,31.70
2023-04-28T04:07:27.971Z,28.80
2023-04-28T04:12:29.473Z,35.70
2023-04-28T04:17:31.586Z,40.40
2023-04-28T04:22:33.116Z,34.70
2023-04-28T04:27:34.622Z,29.00
2023-04-28T04:32:36.122Z,25.70
2023-04-28T04:37:37.920Z,29.00
2023-04-28T04:42:39.462Z,31.90
2023-04-28T04:47:41.525Z,32.90
2023-04-28T04:52:43.240Z,24.30
2023-04-28T04:57:44.752Z,26.00
2023-04-28T05:02:46.358Z,24.70
2023-04-28T05:07:48.201Z,27.30
2023-04-28T05:12:49.860Z,25.90
2023-04-28T05:17:51.479Z,25.90
2023-04-28T05:22:53.127Z,24.10
2023-04-28T05:27:56.543Z,24.40
2023-04-28T05:32:58.096Z,21.50
2023-04-28T05:37:59.831Z,27.30
2023-04-28T05:43:01.492Z,26.80
2023-04-28T05:48:05.110Z,24.90
2023-04-28T05:53:07.589Z,25.80
2023-04-28T05:58:09.260Z,22.60
2023-04-28T06:03:11.533Z,31.00
2023-04-28T06:08:13.382Z,22.90
2023-04-28T06:13:15.113Z,23.40
2023-04-28T06:18:16.726Z,18.00
2023-04-28T06:23:18.268Z,18.30
2023-04-28T06:28:19.839Z,19.80
2023-04-28T06:33:21.868Z,17.00
2023-04-28T06:38:23.458Z,15.90
2023-04-28T06:43:24.984Z,20.60
2023-04-28T06:48:26.645Z,19.00
2023-04-28T06:53:28.167Z,15.70
2023-04-28T06:58:29.818Z,12.00
2023-04-28T07:03:31.504Z,11.30
2023-04-28T07:08:33.396Z,16.30
2023-04-28T07:13:35.079Z,10.90
2023-04-28T07:18:36.590Z,15.80
2023-04-28T07:23:38.845Z,13.90
2023-04-28T07:28:40.427Z,14.00
2023-04-28T07:33:41.920Z,16.50
2023-04-28T07:38:43.641Z,13.20
2023-04-28T07:43:45.321Z,12.00
2023-04-28T07:48:46.859Z,14.30
2023-04-28T07:53:48.373Z,6.30
2023-04-28T07:58:50.051Z,57.30
2023-04-28T08:03:54.202Z,8.90
2023-04-28T08:08:56.073Z,7.90
2023-04-28T08:14:01.327Z,7.50
2023-04-28T08:19:02.865Z,7.30
2023-04-28T08:24:05.153Z,8.40
2023-04-28T08:29:06.660Z,7.20
2023-04-28T08:34:08.171Z,9.10
2023-04-28T08:39:10.744Z,8.40
2023-04-28T08:44:14.251Z,7.00
2023-04-28T08:49:18.544Z,5.80
2023-04-28T08:54:26.649Z,7.80
2023-04-28T08:59:28.989Z,9.00
2023-04-28T09:04:30.830Z,7.90
2023-04-28T09:09:34.996Z,10.10
2023-04-28T09:14:39.216Z,18.10
2023-04-28T09:19:44.684Z,5.70
2023-04-28T09:24:47.141Z,8.80
2023-04-28T09:29:54.075Z,6.20
2023-04-28T09:34:59.884Z,5.50
2023-04-28T09:40:09.933Z,6.10
2023-04-28T09:45:14.089Z,5.90
2023-04-28T09:50:17.758Z,6.10
2023-04-28T09:55:20.806Z,7.40
2023-04-28T10:00:30.655Z,5.40
2023-04-28T10:05:34.111Z,7.00
2023-04-28T10:10:37.801Z,5.20
2023-04-28T10:15:39.690Z,8.20
2023-04-28T10:20:47.134Z,4.10
2023-04-28T10:25:52.959Z,5.70
2023-04-28T10:31:11.896Z,6.90
2023-04-28T10:36:55.853Z,5.80
2023-04-28T10:41:57.477Z,5.80
2023-04-28T10:47:06.965Z,6.10
2023-04-28T10:52:40.753Z,4.70
2023-04-28T10:57:42.928Z,6.50
2023-04-28T11:02:47.139Z,4.20
2023-04-28T11:08:26.224Z,7.50
2023-04-28T11:13:31.779Z,5.50
2023-04-28T11:18:55.489Z,9.00
2023-04-28T11:23:58.830Z,6.80
2023-04-28T11:29:00.414Z,9.80
2023-04-28T11:34:07.838Z,8.10
2023-04-28T11:39:10.963Z,6.40
2023-04-28T11:49:20.739Z,5.80
2023-04-28T11:54:27.656Z,5.80
2023-04-28T11:59:31.718Z,6.00
2023-04-28T12:04:38.359Z,7.10
2023-04-28T12:09:43.569Z,6.00
2023-04-28T12:14:59.438Z,5.80
2023-04-28T12:20:03.662Z,6.90
2023-04-28T12:25:07.022Z,7.60
2023-04-28T12:30:23.742Z,7.70
2023-04-28T12:35:26.884Z,7.30
2023-04-28T12:40:28.424Z,9.70
2023-04-28T12:45:31.347Z,10.00
2023-04-28T12:55:35.021Z,8.60
2023-04-28T13:00:40.263Z,9.60
2023-04-28T13:05:41.873Z,6.70
2023-04-28T13:10:43.646Z,8.90
2023-04-28T13:15:46.515Z,11.30
2023-04-28T13:25:50.834Z,7.60
2023-04-28T13:35:53.973Z,8.50
2023-04-28T13:40:55.473Z,8.30
2023-04-28T13:45:57.328Z,11.50
2023-04-28T13:50:58.851Z,9.20
2023-04-28T13:56:00.341Z,8.80
2023-04-28T14:01:03.807Z,6.30
2023-04-28T14:06:07.103Z,6.70
2023-04-28T14:11:09.509Z,4.90
2023-04-28T14:16:12.335Z,6.20
2023-04-28T14:21:13.948Z,8.20
2023-04-28T14:26:15.514Z,8.20
2023-04-28T14:31:18.338Z,10.10
2023-04-28T14:36:20.722Z,6.60
2023-04-28T14:41:22.286Z,11.60
2023-04-28T14:46:24.228Z,8.80
2023-04-28T14:51:26.142Z,7.10
2023-04-28T14:56:27.624Z,9.90
2023-04-28T15:01:31.252Z,9.90
2023-04-28T15:06:33.713Z,8.20
2023-04-28T15:11:35.335Z,7.40
2023-04-28T15:16:37.116Z,8.10
2023-04-28T15:21:39.222Z,8.90
2023-04-28T15:26:40.773Z,8.10
2023-04-28T15:31:42.368Z,7.10
2023-04-28T15:36:44.771Z,9.50
2023-04-28T15:41:47.153Z,10.40
2023-04-28T15:46:48.719Z,7.30
2023-04-28T15:51:50.515Z,10.80
2023-04-28T15:56:52.026Z,6.60
2023-04-28T16:01:55.506Z,6.80
2023-04-28T16:06:58.880Z,4.60
2023-04-28T16:12:01.077Z,6.30
2023-04-28T16:17:02.595Z,7.30
2023-04-28T16:22:04.109Z,7.20
2023-04-28T16:27:06.082Z,7.10
2023-04-28T16:32:07.729Z,8.30
2023-04-28T16:37:10.936Z,8.20
2023-04-28T16:42:12.442Z,9.30
2023-04-28T16:47:15.227Z,6.20
2023-04-28T16:52:17.036Z,7.20
2023-04-28T16:57:18.697Z,7.10
2023-04-28T17:02:20.321Z,5.70
2023-04-28T17:07:24.060Z,7.30
2023-04-28T17:12:27.146Z,6.40
2023-04-28T17:17:29.197Z,8.00
2023-04-28T17:22:34.786Z,11.70
2023-04-28T17:27:36.372Z,13.10
2023-04-28T17:32:38.722Z,13.60
2023-04-28T17:37:40.253Z,13.30
2023-04-28T17:42:45.262Z,11.10
2023-04-28T17:47:47.114Z,14.70
2023-04-28T17:52:48.945Z,18.00
2023-04-28T17:57:51.821Z,17.40
2023-04-28T18:02:55.177Z,12.80
2023-04-28T18:08:02.018Z,15.10
2023-04-28T18:13:03.550Z,16.50
2023-04-28T18:18:05.103Z,11.70
2023-04-28T18:23:07.241Z,13.10
2023-04-28T18:28:10.458Z,9.10
2023-04-28T18:33:11.963Z,21.30
2023-04-28T18:38:13.893Z,12.20
2023-04-28T18:43:15.572Z,18.40
2023-04-28T18:48:17.194Z,23.50
2023-04-28T18:53:19.059Z,17.00
2023-04-28T18:58:21.097Z,17.00
2023-04-28T19:03:23.771Z,17.30
2023-04-28T19:08:25.358Z,14.50
2023-04-28T19:13:27.438Z,16.50
2023-04-28T19:18:31.233Z,17.50
2023-04-28T19:23:33.909Z,15.80
2023-04-28T19:28:36.050Z,15.10
2023-04-28T19:33:37.564Z,18.00
2023-04-28T19:38:40.375Z,15.10
2023-04-28T19:43:43.511Z,17.50
2023-04-28T19:48:46.685Z,16.00
2023-04-28T19:53:49.387Z,18.60
2023-04-28T19:58:51.071Z,17.50
2023-04-28T20:03:54.186Z,14.50
2023-04-28T20:08:55.905Z,18.30
2023-04-28T20:13:57.530Z,14.10
2023-04-28T20:18:59.115Z,12.60
2023-04-28T20:24:00.585Z,13.00
2023-04-28T20:29:03.342Z,16.50
2023-04-28T20:34:04.878Z,15.40
2023-04-28T20:39:07.710Z,14.20
2023-04-28T20:44:09.225Z,14.10
2023-04-28T20:49:12.378Z,18.20
2023-04-28T20:54:14.520Z,19.50
2023-04-28T20:59:16.078Z,16.30
2023-04-28T21:04:17.631Z,17.50
2023-04-28T21:09:20.297Z,13.30
2023-04-28T21:14:22.210Z,16.00
2023-04-28T21:19:23.733Z,14.70
2023-04-28T21:24:25.286Z,18.00
2023-04-28T21:29:27.624Z,17.80
2023-04-28T21:34:29.337Z,15.10
2023-04-28T21:39:30.873Z,16.90
2023-04-28T21:44:32.343Z,15.70
2023-04-28T21:49:33.822Z,16.70
2023-04-28T21:54:35.841Z,16.50
2023-04-28T21:59:37.387Z,16.30
2023-04-28T22:04:39.017Z,14.60
2023-04-28T22:09:40.739Z,15.80
2023-04-28T22:14:42.231Z,15.10
2023-04-28T22:19:43.802Z,17.40
2023-04-28T22:24:45.447Z,15.40
2023-04-28T22:29:47.741Z,15.50
2023-04-28T22:34:49.631Z,14.20
2023-04-28T22:39:51.488Z,16.10
2023-04-28T22:44:53.363Z,14.50
2023-04-28T22:49:55.102Z,20.70
2023-04-28T22:54:56.789Z,18.60
2023-04-28T22:59:58.552Z,14.60
2023-04-28T23:05:01.187Z,18.60
2023-04-28T23:10:05.072Z,18.90
2023-04-28T23:15:07.477Z,17.10
2023-04-28T23:20:09.851Z,13.80
2023-04-28T23:25:11.557Z,14.70
2023-04-28T23:30:13.330Z,13.90
2023-04-28T23:35:15.386Z,16.20
2023-04-28T23:40:16.910Z,14.00
2023-04-28T23:45:18.561Z,13.60
2023-04-28T23:50:20.050Z,15.60
2023-04-28T23:55:21.564Z,15.60
